hesaa.org alexa rank chart, hesaa.org alexa rank daily changes

hesaa.org alexa rank chart, hesaa.org alexa rank daily changes

hesaa.org
Actual rank:
132 496

RANK HISTORY

Date Rank Diff
2017/11/24 132 496 -837
2017/11/23 133 333 -372
2017/11/22 133 705 -635
2017/11/21 134 340 +1 238
2017/11/20 133 102 -643
2017/11/19 133 745 -4 565
2017/11/18 138 310 -4 723
2017/11/17 143 033 -2 925
2017/11/16 145 958 -2 021
2017/11/15 147 979 +3 958
2017/11/14 144 021 +599
2017/11/13 143 422 +2 520
2017/11/12 140 902 -965
2017/11/11 141 867 +3 051
2017/11/10 138 816 -1 160
2017/11/09 139 976 +1 440
2017/11/08 138 536 +517
2017/11/07 138 019 +3 953
2017/11/06 134 066 +1 653
2017/11/05 132 413 +2 113
2017/11/04 130 300 +5 062
2017/11/03 125 238 -1 398
2017/11/02 126 636 +1 332
2017/11/01 125 304 -181
2017/10/31 125 485 +1 963
2017/10/30 123 522 -3 371
2017/10/29 126 893 +1 483
2017/10/28 125 410 -1 908
2017/10/27 127 318 -102
2017/10/26 127 420 -1 453
2017/10/25 128 873 -2 859
2017/10/24 131 732 -1 467
2017/10/23 133 199 +2 427
2017/10/22 130 772 +2 965
2017/10/21 127 807 +857
2017/10/20 126 950 +2 812
2017/10/19 124 138 +4 631
2017/10/18 119 507 +2 496
2017/10/17 117 011 +4 366
2017/10/16 112 645 +3 010
2017/10/14 109 635 +627
2017/10/13 109 008 -579
2017/10/12 109 587 +998
2017/10/11 108 589 +411
2017/10/10 108 178 +2 018
2017/10/09 106 160 +1 533
2017/10/08 104 627 +2 303
2017/10/07 102 324 +1 296
2017/10/06 101 028 +136
2017/10/05 100 892 -2 608
2017/10/04 103 500 -1 406
2017/10/03 104 906 +1 577
2017/10/02 103 329 +1 338
2017/10/01 101 991 +993
2017/09/30 100 998 +381
2017/09/29 100 617 +314
2017/09/28 100 303 +1 205
2017/09/27 99 098 +1 623
2017/09/26 97 475 +3 170
2017/09/25 94 305

WIDGET FOR YOUR SITE

DOMAINS WITH THE NEAREST RANK

Domain Rank
aujourdhui.com 132 491
saber.pb.gov.br 132 492
vericite.com 132 493
kikdating.club 132 494
deadlinefunnel.com 132 495
hesaa.org 132 496
liquidspace.com 132 497
apptrkr.com 132 498
subtitles.hr 132 499
123project.ir 132 500
hdrmaps.com 132 501

DOMAINS WITH THE NEAREST RANK BY TLD .org

Domain Rank
spokaneschools.org 132 429
madurasporno.org 132 440
aihanyu.org 132 451
xxxvideosex.org 132 458
theflatearthsociety.org 132 465
hesaa.org 132 496
cityofpaloalto.org 132 510
nsnam.org 132 592
cameroononline.org 132 598
thebulletin.org 132 622
isasa.org 132 632